createdAt,value
2023-05-05T00:01:22.177Z,15.80
2023-05-05T00:03:49.176Z,15.80
2023-05-05T00:06:16.076Z,15.70
2023-05-05T00:08:42.828Z,15.70
2023-05-05T00:11:09.525Z,15.60
2023-05-05T00:13:36.273Z,15.70
2023-05-05T00:16:03.072Z,15.70
2023-05-05T00:18:30.192Z,15.70
2023-05-05T00:20:57.073Z,15.70
2023-05-05T00:23:23.752Z,15.70
2023-05-05T00:25:50.440Z,15.80
2023-05-05T00:28:17.217Z,15.80
2023-05-05T00:30:43.948Z,15.80
2023-05-05T00:33:11.037Z,15.70
2023-05-05T00:35:37.838Z,15.60
2023-05-05T00:38:05.004Z,15.50
2023-05-05T00:40:31.760Z,15.40
2023-05-05T00:42:59.571Z,15.30
2023-05-05T00:45:26.444Z,15.30
2023-05-05T00:47:55.736Z,15.20
2023-05-05T00:50:30.886Z,15.10
2023-05-05T00:53:05.926Z,15.00
2023-05-05T00:55:34.241Z,15.00
2023-05-05T00:58:03.039Z,15.00
2023-05-05T01:00:30.806Z,14.90
2023-05-05T01:02:57.967Z,14.80
2023-05-05T01:05:29.277Z,14.70
2023-05-05T01:08:11.546Z,14.60
2023-05-05T01:10:51.016Z,14.60
2023-05-05T01:13:49.869Z,14.50
2023-05-05T01:16:19.601Z,14.40
2023-05-05T01:18:58.560Z,14.30
2023-05-05T01:21:32.646Z,14.20
2023-05-05T01:24:25.238Z,14.20
2023-05-05T01:27:27.227Z,14.10
2023-05-05T01:30:31.700Z,14.10
2023-05-05T01:33:03.821Z,14.00
2023-05-05T01:35:37.713Z,13.90
2023-05-05T01:38:16.146Z,13.90
2023-05-05T01:40:47.723Z,13.80
2023-05-05T01:43:18.212Z,13.80
2023-05-05T01:45:47.752Z,13.80
2023-05-05T01:48:18.430Z,13.70
2023-05-05T01:50:46.833Z,13.70
2023-05-05T01:53:14.752Z,13.60
2023-05-05T01:55:42.718Z,13.60
2023-05-05T01:58:12.043Z,13.60
2023-05-05T02:00:39.094Z,13.60
2023-05-05T02:03:07.833Z,13.60
2023-05-05T02:05:35.912Z,13.50
2023-05-05T02:08:03.419Z,13.50
2023-05-05T02:10:31.014Z,13.50
2023-05-05T02:13:01.050Z,13.40
2023-05-05T02:15:28.938Z,13.40
2023-05-05T02:17:56.516Z,13.40
2023-05-05T02:20:24.814Z,13.40
2023-05-05T02:22:51.527Z,13.40
2023-05-05T02:25:18.338Z,13.40
2023-05-05T02:27:47.504Z,13.40
2023-05-05T02:30:18.059Z,13.40
2023-05-05T02:32:55.131Z,13.40
2023-05-05T02:35:31.883Z,13.30
2023-05-05T02:38:02.772Z,13.30
2023-05-05T02:40:32.960Z,13.40
2023-05-05T02:43:04.678Z,13.30
2023-05-05T02:45:31.475Z,13.40
2023-05-05T02:48:03.220Z,13.30
2023-05-05T02:50:31.476Z,13.30
2023-05-05T02:52:59.528Z,13.30
2023-05-05T02:55:51.721Z,13.30
2023-05-05T02:58:40.074Z,13.20
2023-05-05T03:01:21.927Z,13.20
2023-05-05T03:04:06.306Z,13.10
2023-05-05T03:06:39.219Z,13.10
2023-05-05T03:09:11.015Z,13.10
2023-05-05T03:11:49.857Z,13.20
2023-05-05T03:14:21.054Z,13.20
2023-05-05T03:16:49.838Z,13.20
2023-05-05T03:19:21.343Z,13.20
2023-05-05T03:21:48.295Z,13.30
2023-05-05T03:24:19.733Z,13.40
2023-05-05T03:26:48.429Z,13.40
2023-05-05T03:29:15.789Z,13.50
2023-05-05T03:36:40.520Z,13.60
2023-05-05T03:39:07.675Z,13.60
2023-05-05T03:41:34.703Z,13.50
2023-05-05T03:44:01.379Z,13.40
2023-05-05T03:46:28.082Z,13.50
2023-05-05T03:48:57.121Z,13.40
2023-05-05T03:51:24.764Z,13.30
2023-05-05T03:56:18.620Z,13.30
2023-05-05T04:06:07.147Z,13.10
2023-05-05T04:11:02.519Z,13.20
2023-05-05T04:18:23.665Z,13.20
2023-05-05T04:23:17.666Z,13.20
2023-05-05T04:42:54.836Z,13.80
2023-05-05T04:50:16.587Z,14.10
2023-05-05T04:52:43.289Z,14.20
2023-05-05T04:57:38.224Z,14.40
2023-05-05T05:00:06.282Z,14.50
2023-05-05T05:02:33.310Z,14.70
2023-05-05T05:07:27.208Z,14.90
2023-05-05T05:12:21.043Z,15.00
2023-05-05T05:14:47.803Z,15.10
2023-05-05T05:17:14.617Z,15.20
2023-05-05T05:22:08.946Z,15.50
2023-05-05T05:24:36.288Z,15.70
2023-05-05T05:29:30.136Z,15.90
2023-05-05T05:34:24.040Z,15.90
2023-05-05T05:36:50.823Z,16.00
2023-05-05T05:39:17.477Z,16.20
2023-05-05T05:44:11.245Z,16.40
2023-05-05T05:46:38.046Z,16.50
2023-05-05T05:49:04.792Z,16.70
2023-05-05T05:51:31.544Z,16.90
2023-05-05T05:53:58.986Z,17.20
2023-05-05T05:56:25.761Z,17.30
2023-05-05T05:58:52.589Z,17.40
2023-05-05T06:01:19.494Z,17.50
2023-05-05T06:03:46.667Z,17.40
2023-05-05T06:06:13.595Z,17.50
2023-05-05T06:08:40.342Z,17.70
2023-05-05T06:11:07.118Z,17.70
2023-05-05T06:13:34.120Z,18.30
2023-05-05T06:16:01.066Z,18.50
2023-05-05T06:18:27.933Z,19.00
2023-05-05T06:20:54.639Z,19.00
2023-05-05T06:23:21.921Z,19.20
2023-05-05T06:25:48.665Z,19.50
2023-05-05T06:28:15.411Z,19.90
2023-05-05T06:30:42.157Z,19.90
2023-05-05T06:33:08.898Z,20.10
2023-05-05T06:35:35.785Z,20.20
2023-05-05T06:38:02.463Z,20.20
2023-05-05T06:40:29.139Z,20.10
2023-05-05T06:42:55.823Z,19.40
2023-05-05T06:45:22.626Z,19.50
2023-05-05T06:47:49.399Z,19.30
2023-05-05T06:50:16.294Z,19.20
2023-05-05T06:52:42.992Z,19.00
2023-05-05T06:55:10.287Z,19.00
2023-05-05T06:57:36.949Z,19.00
2023-05-05T07:00:05.992Z,19.10
2023-05-05T07:02:33.623Z,19.10
2023-05-05T07:05:00.430Z,19.50
2023-05-05T07:07:27.084Z,19.70
2023-05-05T07:09:53.830Z,19.70
2023-05-05T07:12:20.500Z,19.50
2023-05-05T07:14:47.302Z,19.50
2023-05-05T07:17:13.981Z,19.70
2023-05-05T07:19:40.762Z,19.50
2023-05-05T07:22:07.418Z,19.70
2023-05-05T07:24:34.094Z,20.00
2023-05-05T07:27:01.355Z,20.00
2023-05-05T07:29:28.105Z,19.90
2023-05-05T07:31:54.829Z,20.00
2023-05-05T07:34:21.540Z,20.00
2023-05-05T07:36:48.301Z,20.10
2023-05-05T07:39:15.327Z,20.50
2023-05-05T07:41:43.223Z,20.50
2023-05-05T07:44:09.969Z,20.40
2023-05-05T07:46:36.813Z,20.60
2023-05-05T07:49:03.793Z,20.60
2023-05-05T07:51:33.881Z,20.60
2023-05-05T07:54:01.224Z,20.60
2023-05-05T07:56:27.872Z,20.60
2023-05-05T07:58:55.023Z,20.80
2023-05-05T08:01:21.860Z,20.90
2023-05-05T08:03:48.868Z,20.80
2023-05-05T08:06:22.378Z,20.80
2023-05-05T08:08:49.335Z,20.80
2023-05-05T08:11:17.079Z,20.90
2023-05-05T08:13:44.149Z,21.10
2023-05-05T08:16:11.197Z,21.00
2023-05-05T08:18:38.530Z,21.00
2023-05-05T08:21:09.209Z,20.90
2023-05-05T08:23:36.785Z,20.90
2023-05-05T08:26:06.230Z,20.90
2023-05-05T08:28:34.554Z,21.10
2023-05-05T08:31:01.290Z,21.10
2023-05-05T08:33:28.008Z,21.30
2023-05-05T08:35:54.682Z,21.50
2023-05-05T08:38:21.530Z,21.00
2023-05-05T08:40:48.326Z,21.30
2023-05-05T08:43:15.859Z,21.30
2023-05-05T08:45:42.851Z,21.40
2023-05-05T08:48:10.137Z,21.40
2023-05-05T08:50:39.990Z,21.50
2023-05-05T08:53:14.716Z,21.50
2023-05-05T08:55:51.454Z,21.50
2023-05-05T08:58:19.585Z,21.80
2023-05-05T09:00:46.736Z,21.50
2023-05-05T09:03:14.520Z,21.50
2023-05-05T09:05:42.949Z,21.40
2023-05-05T09:08:11.374Z,21.30
2023-05-05T09:10:41.527Z,21.20
2023-05-05T09:13:09.255Z,21.20
2023-05-05T09:15:38.779Z,21.40
2023-05-05T09:18:08.927Z,21.50
2023-05-05T09:20:37.214Z,21.60
2023-05-05T09:23:15.090Z,21.90
2023-05-05T09:26:03.792Z,22.10
2023-05-05T09:28:30.695Z,21.80
2023-05-05T09:31:13.020Z,21.80
2023-05-05T09:33:39.785Z,21.90
2023-05-05T09:36:06.802Z,22.10
2023-05-05T09:38:36.324Z,22.20
2023-05-05T09:41:03.003Z,22.40
2023-05-05T09:46:07.819Z,21.90
2023-05-05T09:48:34.819Z,22.10
2023-05-05T09:51:01.616Z,22.20
2023-05-05T09:53:39.416Z,22.40
2023-05-05T09:58:33.770Z,22.20
2023-05-05T10:01:01.293Z,22.20
2023-05-05T10:03:27.982Z,22.50
2023-05-05T10:05:56.858Z,22.40
2023-05-05T10:08:31.494Z,22.40
2023-05-05T10:11:00.941Z,21.60
2023-05-05T10:13:28.070Z,21.50
2023-05-05T10:15:56.263Z,21.30
2023-05-05T10:18:28.232Z,21.50
2023-05-05T10:21:03.137Z,21.60
2023-05-05T10:23:45.703Z,22.00
2023-05-05T10:26:14.654Z,22.10
2023-05-05T10:29:01.319Z,22.20
2023-05-05T10:31:36.575Z,22.70
2023-05-05T10:34:03.857Z,23.00
2023-05-05T10:36:31.760Z,23.00
2023-05-05T10:38:59.843Z,23.10
2023-05-05T10:41:26.978Z,23.40
2023-05-05T10:43:57.404Z,23.30
2023-05-05T10:46:26.821Z,23.70
2023-05-05T10:49:17.944Z,24.00
2023-05-05T10:52:23.029Z,23.90
2023-05-05T10:55:02.273Z,24.00
2023-05-05T10:57:32.297Z,23.80
2023-05-05T10:59:58.964Z,23.60
2023-05-05T11:02:29.664Z,23.60
2023-05-05T11:05:18.269Z,23.30
2023-05-05T11:07:46.819Z,22.90
2023-05-05T11:10:15.265Z,22.20
2023-05-05T11:12:59.204Z,21.90
2023-05-05T11:15:31.613Z,21.50
2023-05-05T11:18:00.003Z,20.90
2023-05-05T11:20:45.290Z,20.80
2023-05-05T11:23:13.372Z,20.60
2023-05-05T11:25:44.560Z,20.50
2023-05-05T11:28:15.059Z,20.40
2023-05-05T11:30:58.160Z,20.10
2023-05-05T11:33:25.995Z,19.70
2023-05-05T11:36:05.812Z,19.30
2023-05-05T11:38:39.290Z,18.60
2023-05-05T11:41:30.627Z,18.00
2023-05-05T11:44:17.955Z,17.40
2023-05-05T11:46:50.825Z,17.00
2023-05-05T11:49:35.757Z,16.70
2023-05-05T11:52:14.496Z,16.40
2023-05-05T11:54:47.776Z,16.00
2023-05-05T11:57:22.161Z,16.00
2023-05-05T11:59:57.904Z,15.90
2023-05-05T12:02:28.486Z,15.90
2023-05-05T12:04:57.186Z,16.00
2023-05-05T12:07:27.762Z,16.00
2023-05-05T12:09:55.253Z,16.00
2023-05-05T12:12:34.330Z,16.10
2023-05-05T12:15:01.090Z,16.40
2023-05-05T12:17:40.011Z,16.60
2023-05-05T12:20:09.069Z,17.00
2023-05-05T12:22:36.110Z,17.50
2023-05-05T12:25:05.476Z,17.80
2023-05-05T12:30:14.695Z,18.60
2023-05-05T12:32:41.637Z,18.80
2023-05-05T12:35:10.471Z,19.20
2023-05-05T12:40:06.308Z,19.30
2023-05-05T12:42:38.995Z,19.30
2023-05-05T12:45:07.061Z,19.20
2023-05-05T12:47:33.944Z,19.40
2023-05-05T12:50:02.894Z,19.50
2023-05-05T12:52:43.825Z,19.50
2023-05-05T12:55:11.305Z,19.50
2023-05-05T12:57:38.970Z,19.30
2023-05-05T13:00:16.571Z,19.60
2023-05-05T13:02:43.553Z,19.70
2023-05-05T13:07:50.148Z,19.90
2023-05-05T13:10:16.879Z,19.80
2023-05-05T13:12:43.551Z,19.80
2023-05-05T13:17:37.831Z,20.10
2023-05-05T13:22:31.929Z,20.30
2023-05-05T13:32:19.954Z,21.10
2023-05-05T13:42:08.622Z,20.80
2023-05-05T13:47:03.079Z,21.10
2023-05-05T13:54:24.224Z,20.70
2023-05-05T13:56:50.945Z,20.60
2023-05-05T14:01:44.791Z,20.10
2023-05-05T14:04:11.542Z,19.80
2023-05-05T14:06:38.300Z,19.70
2023-05-05T14:11:33.310Z,19.60
2023-05-05T14:13:59.987Z,19.60
2023-05-05T14:18:54.100Z,19.40
2023-05-05T14:21:20.767Z,19.20
2023-05-05T14:23:47.560Z,19.00
2023-05-05T14:26:14.207Z,19.10
2023-05-05T14:31:09.035Z,19.10
2023-05-05T14:45:52.694Z,18.30
2023-05-05T14:55:45.745Z,17.80
2023-05-05T14:58:12.426Z,17.50
2023-05-05T15:05:33.454Z,16.60
2023-05-05T15:08:00.378Z,16.40
2023-05-05T15:12:54.487Z,16.40
2023-05-05T15:17:48.317Z,16.30
2023-05-05T15:20:14.988Z,16.10
2023-05-05T15:25:12.312Z,15.90
2023-05-05T15:27:42.067Z,15.70
2023-05-05T15:30:09.289Z,15.60
2023-05-05T15:35:03.345Z,15.50
2023-05-05T15:37:30.946Z,15.50
2023-05-05T15:39:57.961Z,15.60
2023-05-05T15:42:25.212Z,15.70
2023-05-05T15:44:52.303Z,15.80
2023-05-05T15:47:19.080Z,15.90
2023-05-05T15:49:45.804Z,16.10
2023-05-05T15:52:12.813Z,16.30
2023-05-05T15:54:39.610Z,16.80
2023-05-05T15:57:06.458Z,17.20
2023-05-05T16:02:00.366Z,17.60
2023-05-05T16:04:27.224Z,17.70
2023-05-05T16:06:55.395Z,17.70
2023-05-05T16:09:22.090Z,17.50
2023-05-05T16:19:10.568Z,17.30
2023-05-05T16:21:37.234Z,17.30
2023-05-05T16:24:04.223Z,17.10
2023-05-05T16:26:30.940Z,17.00
2023-05-05T16:28:57.660Z,17.00
2023-05-05T16:38:47.410Z,16.50
2023-05-05T16:41:14.188Z,16.30
2023-05-05T16:46:08.182Z,16.00
2023-05-05T16:48:34.892Z,15.90
2023-05-05T16:53:28.775Z,15.80
2023-05-05T16:58:22.951Z,15.70
2023-05-05T17:00:50.848Z,15.70
2023-05-05T17:03:21.241Z,15.70
2023-05-05T17:05:50.273Z,15.80
2023-05-05T17:08:17.285Z,15.90
2023-05-05T17:10:45.279Z,16.00
2023-05-05T17:13:13.434Z,15.90
2023-05-05T17:18:08.738Z,15.80
2023-05-05T17:20:36.337Z,15.80
2023-05-05T17:23:03.248Z,15.80
2023-05-05T17:27:57.397Z,15.60
2023-05-05T17:30:24.257Z,15.60
2023-05-05T17:45:08.331Z,15.20
2023-05-05T17:47:36.005Z,15.20
2023-05-05T17:50:03.206Z,15.20
2023-05-05T17:54:57.102Z,15.20
2023-05-05T17:57:23.883Z,15.20
2023-05-05T17:59:51.901Z,15.10
2023-05-05T18:04:46.459Z,15.00
2023-05-05T18:07:14.663Z,14.80
2023-05-05T18:09:41.638Z,14.90
2023-05-05T18:12:08.347Z,14.80
2023-05-05T18:26:54.817Z,14.60
2023-05-05T18:31:52.836Z,14.50
2023-05-05T18:36:48.284Z,14.40
2023-05-05T18:49:03.881Z,14.30
2023-05-05T18:54:00.055Z,14.30
2023-05-05T19:01:21.622Z,14.40
2023-05-05T19:03:48.689Z,14.30
2023-05-05T19:06:16.249Z,14.30
2023-05-05T19:13:39.818Z,14.30
2023-05-05T19:16:07.244Z,14.30
2023-05-05T19:18:34.267Z,14.30
2023-05-05T19:21:04.199Z,14.20
2023-05-05T19:23:31.715Z,14.20
2023-05-05T19:28:25.718Z,14.20
2023-05-05T19:33:19.736Z,14.20
2023-05-05T19:38:13.589Z,14.10
2023-05-05T19:45:34.989Z,14.00
2023-05-05T19:48:02.300Z,14.00
2023-05-05T19:52:57.956Z,13.80
2023-05-05T20:00:20.297Z,13.70
2023-05-05T20:02:49.113Z,13.60
2023-05-05T20:05:17.419Z,13.60
2023-05-05T20:07:46.336Z,13.60
2023-05-05T20:10:13.571Z,13.50
2023-05-05T20:12:47.397Z,13.50
2023-05-05T20:15:21.627Z,13.40
2023-05-05T20:17:48.483Z,13.40
2023-05-05T20:20:17.480Z,13.40
2023-05-05T20:22:45.818Z,13.30
2023-05-05T20:25:13.004Z,13.30
2023-05-05T20:27:39.688Z,13.30
2023-05-05T20:32:35.801Z,13.20
2023-05-05T20:37:32.327Z,13.10
2023-05-05T20:44:56.659Z,13.00
2023-05-05T20:49:54.228Z,13.00
2023-05-05T20:54:48.124Z,13.00
2023-05-05T20:57:14.899Z,12.90
2023-05-05T21:02:11.965Z,13.00
2023-05-05T21:04:38.784Z,13.00
2023-05-05T21:07:05.719Z,13.00
2023-05-05T21:09:32.513Z,13.00
2023-05-05T21:21:48.452Z,13.00
2023-05-05T21:26:44.161Z,13.00
2023-05-05T21:31:38.196Z,13.10
2023-05-05T21:36:33.760Z,13.10
2023-05-05T21:43:55.583Z,13.20
2023-05-05T21:46:22.348Z,13.20
2023-05-05T21:51:16.351Z,13.30
2023-05-05T21:53:43.207Z,13.30
2023-05-05T22:03:31.598Z,13.30
2023-05-05T22:10:53.467Z,13.30
2023-05-05T22:15:47.749Z,13.30
2023-05-05T22:18:15.248Z,13.30
2023-05-05T22:20:42.239Z,13.30
2023-05-05T22:28:03.126Z,13.30
2023-05-05T22:35:24.488Z,13.20
2023-05-05T22:37:51.605Z,13.20
2023-05-05T22:40:18.269Z,13.10
2023-05-05T22:42:44.982Z,13.10
2023-05-05T22:45:12.068Z,13.10
2023-05-05T22:50:07.501Z,13.00
2023-05-05T23:04:51.043Z,13.00
2023-05-05T23:09:45.914Z,13.10
2023-05-05T23:12:12.569Z,13.00
2023-05-05T23:22:01.612Z,12.90
2023-05-05T23:24:28.656Z,12.90
2023-05-05T23:26:59.751Z,12.90
2023-05-05T23:29:26.449Z,12.80
2023-05-05T23:31:53.228Z,12.70
2023-05-05T23:36:47.048Z,12.70
2023-05-05T23:39:13.823Z,12.70
2023-05-05T23:44:07.707Z,12.60
2023-05-05T23:46:34.675Z,12.50
2023-05-05T23:51:28.540Z,12.40
2023-05-05T23:53:57.038Z,12.40
2023-05-05T23:56:24.486Z,12.30
